sensor_id;sensor_type;location;lat;lon;timestamp;P1;durP1;ratioP1;P2;durP2;ratioP2
30127;SDS011;16942;53.196;6.592;2023-07-08T00:01:22;6.33;;;4.37;;
30127;SDS011;16942;53.196;6.592;2023-07-08T00:03:48;7.50;;;5.33;;
30127;SDS011;16942;53.196;6.592;2023-07-08T00:06:19;7.87;;;4.37;;
30127;SDS011;16942;53.196;6.592;2023-07-08T00:08:45;8.33;;;4.97;;
30127;SDS011;16942;53.196;6.592;2023-07-08T00:11:12;7.63;;;4.53;;
30127;SDS011;16942;53.196;6.592;2023-07-08T00:13:38;7.10;;;5.20;;
30127;SDS011;16942;53.196;6.592;2023-07-08T00:16:07;7.83;;;4.47;;
30127;SDS011;16942;53.196;6.592;2023-07-08T00:18:34;9.43;;;5.13;;
30127;SDS011;16942;53.196;6.592;2023-07-08T00:21:00;8.80;;;4.83;;
30127;SDS011;16942;53.196;6.592;2023-07-08T00:23:26;5.50;;;4.93;;
30127;SDS011;16942;53.196;6.592;2023-07-08T00:25:52;9.00;;;4.70;;
30127;SDS011;16942;53.196;6.592;2023-07-08T00:28:18;6.17;;;4.43;;
30127;SDS011;16942;53.196;6.592;2023-07-08T00:30:45;7.27;;;4.70;;
30127;SDS011;16942;53.196;6.592;2023-07-08T00:33:11;7.40;;;5.07;;
30127;SDS011;16942;53.196;6.592;2023-07-08T00:35:38;9.53;;;5.10;;
30127;SDS011;16942;53.196;6.592;2023-07-08T00:40:37;7.50;;;4.93;;
30127;SDS011;16942;53.196;6.592;2023-07-08T00:43:04;6.90;;;4.60;;
30127;SDS011;16942;53.196;6.592;2023-07-08T00:48:34;8.23;;;5.30;;
30127;SDS011;16942;53.196;6.592;2023-07-08T00:50:53;8.03;;;5.10;;
30127;SDS011;16942;53.196;6.592;2023-07-08T00:55:49;8.57;;;5.10;;
30127;SDS011;16942;53.196;6.592;2023-07-08T00:58:16;11.07;;;5.17;;
30127;SDS011;16942;53.196;6.592;2023-07-08T01:00:42;9.70;;;5.53;;
30127;SDS011;16942;53.196;6.592;2023-07-08T01:03:08;6.37;;;4.50;;
30127;SDS011;16942;53.196;6.592;2023-07-08T01:05:34;8.80;;;5.90;;
30127;SDS011;16942;53.196;6.592;2023-07-08T01:08:03;7.67;;;4.90;;
30127;SDS011;16942;53.196;6.592;2023-07-08T01:11:04;8.03;;;4.97;;
30127;SDS011;16942;53.196;6.592;2023-07-08T01:13:23;6.87;;;4.20;;
30127;SDS011;16942;53.196;6.592;2023-07-08T01:15:49;6.87;;;4.83;;
30127;SDS011;16942;53.196;6.592;2023-07-08T01:18:17;8.10;;;4.80;;
30127;SDS011;16942;53.196;6.592;2023-07-08T01:20:46;6.73;;;4.90;;
30127;SDS011;16942;53.196;6.592;2023-07-08T01:23:12;6.10;;;4.67;;
30127;SDS011;16942;53.196;6.592;2023-07-08T01:25:40;7.53;;;5.67;;
30127;SDS011;16942;53.196;6.592;2023-07-08T01:28:07;6.77;;;4.87;;
30127;SDS011;16942;53.196;6.592;2023-07-08T01:30:33;10.23;;;4.77;;
30127;SDS011;16942;53.196;6.592;2023-07-08T01:33:00;9.30;;;4.60;;
30127;SDS011;16942;53.196;6.592;2023-07-08T01:35:27;7.37;;;4.73;;
30127;SDS011;16942;53.196;6.592;2023-07-08T01:37:58;7.60;;;5.27;;
30127;SDS011;16942;53.196;6.592;2023-07-08T01:40:29;7.07;;;5.20;;
30127;SDS011;16942;53.196;6.592;2023-07-08T01:42:55;8.13;;;5.00;;
30127;SDS011;16942;53.196;6.592;2023-07-08T01:45:22;7.80;;;4.73;;
30127;SDS011;16942;53.196;6.592;2023-07-08T01:47:53;6.27;;;4.97;;
30127;SDS011;16942;53.196;6.592;2023-07-08T01:50:20;8.63;;;4.97;;
30127;SDS011;16942;53.196;6.592;2023-07-08T01:52:48;7.67;;;5.10;;
30127;SDS011;16942;53.196;6.592;2023-07-08T01:55:14;10.10;;;5.10;;
30127;SDS011;16942;53.196;6.592;2023-07-08T01:57:40;7.67;;;5.60;;
30127;SDS011;16942;53.196;6.592;2023-07-08T02:00:06;8.97;;;5.07;;
30127;SDS011;16942;53.196;6.592;2023-07-08T02:02:33;9.03;;;5.20;;
30127;SDS011;16942;53.196;6.592;2023-07-08T02:04:59;6.67;;;4.60;;
30127;SDS011;16942;53.196;6.592;2023-07-08T02:07:25;6.07;;;5.00;;
30127;SDS011;16942;53.196;6.592;2023-07-08T02:09:51;6.70;;;4.57;;
30127;SDS011;16942;53.196;6.592;2023-07-08T02:12:17;8.50;;;5.43;;
30127;SDS011;16942;53.196;6.592;2023-07-08T02:14:43;9.87;;;4.80;;
30127;SDS011;16942;53.196;6.592;2023-07-08T02:17:09;10.90;;;5.53;;
30127;SDS011;16942;53.196;6.592;2023-07-08T02:19:35;7.93;;;5.23;;
30127;SDS011;16942;53.196;6.592;2023-07-08T02:22:01;6.17;;;4.60;;
30127;SDS011;16942;53.196;6.592;2023-07-08T02:24:27;7.87;;;5.10;;
30127;SDS011;16942;53.196;6.592;2023-07-08T02:26:53;6.57;;;4.73;;
30127;SDS011;16942;53.196;6.592;2023-07-08T02:29:19;9.07;;;5.03;;
30127;SDS011;16942;53.196;6.592;2023-07-08T02:31:45;7.43;;;5.00;;
30127;SDS011;16942;53.196;6.592;2023-07-08T02:34:11;5.50;;;4.67;;
30127;SDS011;16942;53.196;6.592;2023-07-08T02:36:37;7.00;;;4.87;;
30127;SDS011;16942;53.196;6.592;2023-07-08T02:39:04;7.63;;;5.43;;
30127;SDS011;16942;53.196;6.592;2023-07-08T02:41:30;7.70;;;5.03;;
30127;SDS011;16942;53.196;6.592;2023-07-08T02:43:56;7.20;;;4.97;;
30127;SDS011;16942;53.196;6.592;2023-07-08T02:46:22;7.97;;;5.27;;
30127;SDS011;16942;53.196;6.592;2023-07-08T02:48:48;7.83;;;5.73;;
30127;SDS011;16942;53.196;6.592;2023-07-08T02:51:14;6.90;;;5.10;;
30127;SDS011;16942;53.196;6.592;2023-07-08T02:53:40;7.60;;;5.97;;
30127;SDS011;16942;53.196;6.592;2023-07-08T02:56:06;9.07;;;6.10;;
30127;SDS011;16942;53.196;6.592;2023-07-08T02:58:32;8.73;;;5.67;;
30127;SDS011;16942;53.196;6.592;2023-07-08T03:00:59;10.53;;;6.60;;
30127;SDS011;16942;53.196;6.592;2023-07-08T03:03:25;7.73;;;5.47;;
30127;SDS011;16942;53.196;6.592;2023-07-08T03:05:58;7.50;;;5.63;;
30127;SDS011;16942;53.196;6.592;2023-07-08T03:08:24;12.37;;;6.03;;
30127;SDS011;16942;53.196;6.592;2023-07-08T03:10:55;7.77;;;6.10;;
30127;SDS011;16942;53.196;6.592;2023-07-08T03:13:21;8.13;;;5.90;;
30127;SDS011;16942;53.196;6.592;2023-07-08T03:15:48;13.93;;;7.70;;
30127;SDS011;16942;53.196;6.592;2023-07-08T03:18:14;9.63;;;6.17;;
30127;SDS011;16942;53.196;6.592;2023-07-08T03:20:41;8.83;;;5.47;;
30127;SDS011;16942;53.196;6.592;2023-07-08T03:23:10;12.60;;;6.23;;
30127;SDS011;16942;53.196;6.592;2023-07-08T03:25:36;9.37;;;5.73;;
30127;SDS011;16942;53.196;6.592;2023-07-08T03:28:03;9.33;;;6.57;;
30127;SDS011;16942;53.196;6.592;2023-07-08T03:30:31;11.17;;;6.30;;
30127;SDS011;16942;53.196;6.592;2023-07-08T03:32:57;8.57;;;5.97;;
30127;SDS011;16942;53.196;6.592;2023-07-08T03:35:23;9.63;;;6.57;;
30127;SDS011;16942;53.196;6.592;2023-07-08T03:37:50;7.73;;;6.47;;
30127;SDS011;16942;53.196;6.592;2023-07-08T03:40:16;13.73;;;6.77;;
30127;SDS011;16942;53.196;6.592;2023-07-08T03:42:42;12.13;;;7.30;;
30127;SDS011;16942;53.196;6.592;2023-07-08T03:45:08;10.80;;;6.83;;
30127;SDS011;16942;53.196;6.592;2023-07-08T03:47:34;14.47;;;7.33;;
30127;SDS011;16942;53.196;6.592;2023-07-08T03:50:01;10.33;;;6.87;;
30127;SDS011;16942;53.196;6.592;2023-07-08T03:52:27;11.00;;;7.20;;
30127;SDS011;16942;53.196;6.592;2023-07-08T03:54:53;8.60;;;6.70;;
30127;SDS011;16942;53.196;6.592;2023-07-08T03:57:21;12.17;;;7.10;;
30127;SDS011;16942;53.196;6.592;2023-07-08T03:59:47;12.63;;;7.63;;
30127;SDS011;16942;53.196;6.592;2023-07-08T04:02:13;15.03;;;7.83;;
30127;SDS011;16942;53.196;6.592;2023-07-08T04:04:39;8.97;;;7.43;;
30127;SDS011;16942;53.196;6.592;2023-07-08T04:07:05;10.17;;;7.67;;
30127;SDS011;16942;53.196;6.592;2023-07-08T04:09:31;9.73;;;6.67;;
30127;SDS011;16942;53.196;6.592;2023-07-08T04:11:57;11.20;;;6.57;;
30127;SDS011;16942;53.196;6.592;2023-07-08T04:14:24;15.90;;;8.87;;
30127;SDS011;16942;53.196;6.592;2023-07-08T04:16:52;14.40;;;7.80;;
30127;SDS011;16942;53.196;6.592;2023-07-08T04:19:18;15.23;;;6.93;;
30127;SDS011;16942;53.196;6.592;2023-07-08T04:21:45;13.67;;;7.23;;
30127;SDS011;16942;53.196;6.592;2023-07-08T04:24:12;27.03;;;9.40;;
30127;SDS011;16942;53.196;6.592;2023-07-08T04:26:38;49.47;;;14.40;;
30127;SDS011;16942;53.196;6.592;2023-07-08T04:29:11;27.00;;;11.43;;
30127;SDS011;16942;53.196;6.592;2023-07-08T04:31:37;41.20;;;13.67;;
30127;SDS011;16942;53.196;6.592;2023-07-08T04:34:03;40.73;;;11.80;;
30127;SDS011;16942;53.196;6.592;2023-07-08T04:36:31;16.80;;;8.33;;
30127;SDS011;16942;53.196;6.592;2023-07-08T04:38:57;16.53;;;9.27;;
30127;SDS011;16942;53.196;6.592;2023-07-08T04:41:24;13.03;;;8.27;;
30127;SDS011;16942;53.196;6.592;2023-07-08T04:43:51;14.33;;;7.63;;
30127;SDS011;16942;53.196;6.592;2023-07-08T04:46:40;10.90;;;7.33;;
30127;SDS011;16942;53.196;6.592;2023-07-08T04:49:05;10.30;;;8.10;;
30127;SDS011;16942;53.196;6.592;2023-07-08T04:51:32;9.17;;;6.70;;
30127;SDS011;16942;53.196;6.592;2023-07-08T04:53:58;8.87;;;6.70;;
30127;SDS011;16942;53.196;6.592;2023-07-08T04:56:40;9.00;;;6.50;;
30127;SDS011;16942;53.196;6.592;2023-07-08T04:59:10;23.53;;;9.13;;
30127;SDS011;16942;53.196;6.592;2023-07-08T05:01:38;11.50;;;7.33;;
30127;SDS011;16942;53.196;6.592;2023-07-08T05:04:04;22.57;;;9.70;;
30127;SDS011;16942;53.196;6.592;2023-07-08T05:06:31;28.23;;;10.07;;
30127;SDS011;16942;53.196;6.592;2023-07-08T05:08:58;27.33;;;9.63;;
30127;SDS011;16942;53.196;6.592;2023-07-08T05:11:24;59.33;;;16.23;;
30127;SDS011;16942;53.196;6.592;2023-07-08T05:13:50;29.67;;;12.47;;
30127;SDS011;16942;53.196;6.592;2023-07-08T05:16:16;34.87;;;12.57;;
30127;SDS011;16942;53.196;6.592;2023-07-08T05:18:43;23.40;;;9.43;;
30127;SDS011;16942;53.196;6.592;2023-07-08T05:21:09;61.63;;;14.10;;
30127;SDS011;16942;53.196;6.592;2023-07-08T05:23:35;17.60;;;8.27;;
30127;SDS011;16942;53.196;6.592;2023-07-08T05:26:02;8.83;;;6.83;;
30127;SDS011;16942;53.196;6.592;2023-07-08T05:28:28;10.37;;;6.87;;
30127;SDS011;16942;53.196;6.592;2023-07-08T05:30:55;10.03;;;7.17;;
30127;SDS011;16942;53.196;6.592;2023-07-08T05:33:21;10.33;;;6.77;;
30127;SDS011;16942;53.196;6.592;2023-07-08T05:35:48;11.30;;;7.07;;
30127;SDS011;16942;53.196;6.592;2023-07-08T05:38:14;9.33;;;6.80;;
30127;SDS011;16942;53.196;6.592;2023-07-08T05:40:40;9.60;;;6.77;;
30127;SDS011;16942;53.196;6.592;2023-07-08T05:43:06;8.50;;;7.00;;
30127;SDS011;16942;53.196;6.592;2023-07-08T05:45:32;8.83;;;6.37;;
30127;SDS011;16942;53.196;6.592;2023-07-08T05:48:00;11.07;;;7.57;;
30127;SDS011;16942;53.196;6.592;2023-07-08T05:50:26;10.43;;;6.70;;
30127;SDS011;16942;53.196;6.592;2023-07-08T05:52:52;10.53;;;7.10;;
30127;SDS011;16942;53.196;6.592;2023-07-08T05:55:18;7.50;;;6.27;;
30127;SDS011;16942;53.196;6.592;2023-07-08T05:57:44;7.83;;;6.47;;
30127;SDS011;16942;53.196;6.592;2023-07-08T06:00:10;7.03;;;6.20;;
30127;SDS011;16942;53.196;6.592;2023-07-08T06:02:36;8.57;;;6.53;;
30127;SDS011;16942;53.196;6.592;2023-07-08T06:05:02;7.83;;;6.77;;
30127;SDS011;16942;53.196;6.592;2023-07-08T06:07:28;12.00;;;6.47;;
30127;SDS011;16942;53.196;6.592;2023-07-08T06:09:54;9.00;;;6.97;;
30127;SDS011;16942;53.196;6.592;2023-07-08T06:12:24;10.10;;;6.20;;
30127;SDS011;16942;53.196;6.592;2023-07-08T06:14:50;8.00;;;6.33;;
30127;SDS011;16942;53.196;6.592;2023-07-08T06:17:16;11.97;;;6.07;;
30127;SDS011;16942;53.196;6.592;2023-07-08T06:19:43;7.70;;;6.53;;
30127;SDS011;16942;53.196;6.592;2023-07-08T06:22:09;6.90;;;6.13;;
30127;SDS011;16942;53.196;6.592;2023-07-08T06:24:35;10.93;;;6.43;;
30127;SDS011;16942;53.196;6.592;2023-07-08T06:27:01;7.47;;;6.10;;
30127;SDS011;16942;53.196;6.592;2023-07-08T06:29:27;8.67;;;6.30;;
30127;SDS011;16942;53.196;6.592;2023-07-08T06:31:53;7.57;;;5.53;;
30127;SDS011;16942;53.196;6.592;2023-07-08T06:34:19;9.30;;;6.60;;
30127;SDS011;16942;53.196;6.592;2023-07-08T06:36:48;9.20;;;6.03;;
30127;SDS011;16942;53.196;6.592;2023-07-08T06:39:14;11.93;;;6.33;;
30127;SDS011;16942;53.196;6.592;2023-07-08T06:41:40;15.10;;;6.60;;
30127;SDS011;16942;53.196;6.592;2023-07-08T06:44:06;9.20;;;5.97;;
30127;SDS011;16942;53.196;6.592;2023-07-08T06:46:32;8.13;;;5.70;;
30127;SDS011;16942;53.196;6.592;2023-07-08T06:48:58;11.10;;;6.50;;
30127;SDS011;16942;53.196;6.592;2023-07-08T06:51:24;7.37;;;5.57;;
30127;SDS011;16942;53.196;6.592;2023-07-08T06:53:50;7.33;;;5.47;;
30127;SDS011;16942;53.196;6.592;2023-07-08T06:56:16;7.70;;;5.40;;
30127;SDS011;16942;53.196;6.592;2023-07-08T06:58:43;8.27;;;5.20;;
30127;SDS011;16942;53.196;6.592;2023-07-08T07:01:09;10.27;;;5.70;;
30127;SDS011;16942;53.196;6.592;2023-07-08T07:03:35;10.37;;;5.10;;
30127;SDS011;16942;53.196;6.592;2023-07-08T07:06:01;6.60;;;5.67;;
30127;SDS011;16942;53.196;6.592;2023-07-08T07:08:27;5.80;;;4.93;;
30127;SDS011;16942;53.196;6.592;2023-07-08T07:10:53;9.37;;;5.40;;
30127;SDS011;16942;53.196;6.592;2023-07-08T07:13:19;5.93;;;4.90;;
30127;SDS011;16942;53.196;6.592;2023-07-08T07:15:45;10.00;;;6.20;;
30127;SDS011;16942;53.196;6.592;2023-07-08T07:18:11;11.43;;;5.63;;
30127;SDS011;16942;53.196;6.592;2023-07-08T07:20:37;9.53;;;5.17;;
30127;SDS011;16942;53.196;6.592;2023-07-08T07:23:03;6.67;;;4.87;;
30127;SDS011;16942;53.196;6.592;2023-07-08T07:25:30;5.33;;;4.70;;
30127;SDS011;16942;53.196;6.592;2023-07-08T07:27:56;8.13;;;5.90;;
30127;SDS011;16942;53.196;6.592;2023-07-08T07:30:23;8.17;;;5.23;;
30127;SDS011;16942;53.196;6.592;2023-07-08T07:32:49;6.90;;;5.03;;
30127;SDS011;16942;53.196;6.592;2023-07-08T07:35:15;7.37;;;4.70;;
30127;SDS011;16942;53.196;6.592;2023-07-08T07:37:42;5.23;;;4.50;;
30127;SDS011;16942;53.196;6.592;2023-07-08T07:40:12;8.93;;;5.30;;
30127;SDS011;16942;53.196;6.592;2023-07-08T07:42:40;7.07;;;4.83;;
30127;SDS011;16942;53.196;6.592;2023-07-08T07:45:06;7.10;;;5.13;;
30127;SDS011;16942;53.196;6.592;2023-07-08T07:47:33;7.60;;;4.50;;
30127;SDS011;16942;53.196;6.592;2023-07-08T07:49:59;11.33;;;4.40;;
30127;SDS011;16942;53.196;6.592;2023-07-08T07:52:25;6.10;;;4.50;;
30127;SDS011;16942;53.196;6.592;2023-07-08T07:54:51;5.78;;;3.95;;
30127;SDS011;16942;53.196;6.592;2023-07-08T07:57:19;6.63;;;4.53;;
30127;SDS011;16942;53.196;6.592;2023-07-08T07:59:45;12.63;;;4.70;;
30127;SDS011;16942;53.196;6.592;2023-07-08T08:02:11;7.67;;;4.90;;
30127;SDS011;16942;53.196;6.592;2023-07-08T08:04:37;8.30;;;4.40;;
30127;SDS011;16942;53.196;6.592;2023-07-08T08:07:03;5.90;;;5.22;;
30127;SDS011;16942;53.196;6.592;2023-07-08T08:09:29;7.38;;;4.38;;
30127;SDS011;16942;53.196;6.592;2023-07-08T08:11:56;7.35;;;3.97;;
30127;SDS011;16942;53.196;6.592;2023-07-08T08:14:21;5.97;;;4.47;;
30127;SDS011;16942;53.196;6.592;2023-07-08T08:16:47;5.03;;;4.47;;
30127;SDS011;16942;53.196;6.592;2023-07-08T08:19:13;6.78;;;3.97;;
30127;SDS011;16942;53.196;6.592;2023-07-08T08:21:39;5.88;;;4.25;;
30127;SDS011;16942;53.196;6.592;2023-07-08T08:24:05;7.72;;;4.25;;
30127;SDS011;16942;53.196;6.592;2023-07-08T08:26:32;4.82;;;4.32;;
30127;SDS011;16942;53.196;6.592;2023-07-08T08:28:58;8.95;;;4.13;;
30127;SDS011;16942;53.196;6.592;2023-07-08T08:31:24;6.07;;;4.03;;
30127;SDS011;16942;53.196;6.592;2023-07-08T08:33:53;4.55;;;4.15;;
30127;SDS011;16942;53.196;6.592;2023-07-08T08:36:19;6.93;;;4.10;;
30127;SDS011;16942;53.196;6.592;2023-07-08T08:38:49;4.00;;;3.70;;
30127;SDS011;16942;53.196;6.592;2023-07-08T08:41:30;5.07;;;3.75;;
30127;SDS011;16942;53.196;6.592;2023-07-08T08:43:56;4.85;;;3.88;;
30127;SDS011;16942;53.196;6.592;2023-07-08T08:48:55;5.38;;;3.90;;
30127;SDS011;16942;53.196;6.592;2023-07-08T08:51:22;6.95;;;3.90;;
30127;SDS011;16942;53.196;6.592;2023-07-08T08:53:49;4.65;;;3.75;;
30127;SDS011;16942;53.196;6.592;2023-07-08T08:56:22;6.43;;;4.15;;
30127;SDS011;16942;53.196;6.592;2023-07-08T08:58:55;7.25;;;3.95;;
30127;SDS011;16942;53.196;6.592;2023-07-08T09:01:23;6.70;;;3.92;;
30127;SDS011;16942;53.196;6.592;2023-07-08T09:03:54;5.55;;;3.88;;
30127;SDS011;16942;53.196;6.592;2023-07-08T09:06:28;5.63;;;4.00;;
30127;SDS011;16942;53.196;6.592;2023-07-08T09:08:56;6.15;;;3.72;;
30127;SDS011;16942;53.196;6.592;2023-07-08T09:14:13;6.90;;;3.97;;
30127;SDS011;16942;53.196;6.592;2023-07-08T09:16:43;5.95;;;3.88;;
30127;SDS011;16942;53.196;6.592;2023-07-08T09:19:15;5.50;;;3.88;;
30127;SDS011;16942;53.196;6.592;2023-07-08T09:21:45;5.70;;;3.80;;
30127;SDS011;16942;53.196;6.592;2023-07-08T09:24:17;10.15;;;4.32;;
30127;SDS011;16942;53.196;6.592;2023-07-08T09:26:45;7.90;;;3.70;;
30127;SDS011;16942;53.196;6.592;2023-07-08T09:29:12;5.57;;;4.00;;
30127;SDS011;16942;53.196;6.592;2023-07-08T09:31:39;6.80;;;4.00;;
30127;SDS011;16942;53.196;6.592;2023-07-08T09:36:38;5.03;;;3.53;;
30127;SDS011;16942;53.196;6.592;2023-07-08T09:39:14;4.40;;;4.00;;
30127;SDS011;16942;53.196;6.592;2023-07-08T09:41:41;9.13;;;3.75;;
30127;SDS011;16942;53.196;6.592;2023-07-08T09:47:15;6.93;;;3.50;;
30127;SDS011;16942;53.196;6.592;2023-07-08T09:49:45;6.78;;;3.92;;
30127;SDS011;16942;53.196;6.592;2023-07-08T09:52:13;4.07;;;3.65;;
30127;SDS011;16942;53.196;6.592;2023-07-08T09:54:40;6.63;;;3.42;;
30127;SDS011;16942;53.196;6.592;2023-07-08T09:57:29;10.82;;;4.03;;
30127;SDS011;16942;53.196;6.592;2023-07-08T09:59:57;4.63;;;3.88;;
30127;SDS011;16942;53.196;6.592;2023-07-08T10:04:57;3.60;;;3.30;;
30127;SDS011;16942;53.196;6.592;2023-07-08T10:07:23;6.78;;;3.45;;
30127;SDS011;16942;53.196;6.592;2023-07-08T10:09:53;3.80;;;3.40;;
30127;SDS011;16942;53.196;6.592;2023-07-08T10:12:21;5.18;;;4.00;;
30127;SDS011;16942;53.196;6.592;2023-07-08T10:14:48;7.97;;;3.75;;
30127;SDS011;16942;53.196;6.592;2023-07-08T10:17:16;5.15;;;3.83;;
30127;SDS011;16942;53.196;6.592;2023-07-08T10:19:43;4.55;;;4.15;;
30127;SDS011;16942;53.196;6.592;2023-07-08T10:29:47;4.13;;;3.83;;
30127;SDS011;16942;53.196;6.592;2023-07-08T10:35:15;6.32;;;4.13;;
30127;SDS011;16942;53.196;6.592;2023-07-08T10:45:34;5.90;;;4.38;;
30127;SDS011;16942;53.196;6.592;2023-07-08T10:55:53;4.43;;;3.58;;
30127;SDS011;16942;53.196;6.592;2023-07-08T11:05:45;5.45;;;4.18;;
30127;SDS011;16942;53.196;6.592;2023-07-08T11:13:15;7.03;;;4.47;;
30127;SDS011;16942;53.196;6.592;2023-07-08T11:15:45;6.35;;;4.35;;
30127;SDS011;16942;53.196;6.592;2023-07-08T11:18:14;7.20;;;4.32;;
30127;SDS011;16942;53.196;6.592;2023-07-08T11:20:44;4.63;;;4.22;;
30127;SDS011;16942;53.196;6.592;2023-07-08T11:25:37;4.43;;;4.03;;
30127;SDS011;16942;53.196;6.592;2023-07-08T11:28:04;10.90;;;4.35;;
30127;SDS011;16942;53.196;6.592;2023-07-08T11:30:32;5.90;;;4.32;;
30127;SDS011;16942;53.196;6.592;2023-07-08T11:33:04;5.90;;;4.35;;
30127;SDS011;16942;53.196;6.592;2023-07-08T11:37:56;6.10;;;4.55;;
30127;SDS011;16942;53.196;6.592;2023-07-08T11:40:23;6.05;;;4.28;;
30127;SDS011;16942;53.196;6.592;2023-07-08T11:42:49;6.30;;;4.70;;
30127;SDS011;16942;53.196;6.592;2023-07-08T11:45:29;6.22;;;4.57;;
30127;SDS011;16942;53.196;6.592;2023-07-08T11:48:03;5.47;;;4.75;;
30127;SDS011;16942;53.196;6.592;2023-07-08T11:50:31;4.78;;;4.38;;
30127;SDS011;16942;53.196;6.592;2023-07-08T11:55:48;5.35;;;4.65;;
30127;SDS011;16942;53.196;6.592;2023-07-08T11:58:24;9.18;;;4.85;;
30127;SDS011;16942;53.196;6.592;2023-07-08T12:00:57;7.22;;;4.68;;
30127;SDS011;16942;53.196;6.592;2023-07-08T12:03:28;9.20;;;4.93;;
30127;SDS011;16942;53.196;6.592;2023-07-08T12:05:57;7.18;;;4.30;;
30127;SDS011;16942;53.196;6.592;2023-07-08T12:08:32;5.43;;;4.43;;
30127;SDS011;16942;53.196;6.592;2023-07-08T12:10:59;4.90;;;4.40;;
30127;SDS011;16942;53.196;6.592;2023-07-08T12:13:25;5.43;;;4.30;;
30127;SDS011;16942;53.196;6.592;2023-07-08T12:15:51;5.03;;;4.53;;
30127;SDS011;16942;53.196;6.592;2023-07-08T12:18:25;4.95;;;4.55;;
30127;SDS011;16942;53.196;6.592;2023-07-08T12:20:53;5.82;;;4.30;;
30127;SDS011;16942;53.196;6.592;2023-07-08T12:23:21;4.72;;;4.32;;
30127;SDS011;16942;53.196;6.592;2023-07-08T12:25:47;4.63;;;4.22;;
30127;SDS011;16942;53.196;6.592;2023-07-08T12:28:14;4.78;;;4.30;;
30127;SDS011;16942;53.196;6.592;2023-07-08T12:30:40;9.05;;;4.50;;
30127;SDS011;16942;53.196;6.592;2023-07-08T12:33:40;6.15;;;4.18;;
30127;SDS011;16942;53.196;6.592;2023-07-08T12:36:00;5.85;;;4.65;;
30127;SDS011;16942;53.196;6.592;2023-07-08T12:41:00;4.85;;;4.45;;
30127;SDS011;16942;53.196;6.592;2023-07-08T12:43:26;4.72;;;4.32;;
30127;SDS011;16942;53.196;6.592;2023-07-08T12:45:52;4.95;;;4.47;;
30127;SDS011;16942;53.196;6.592;2023-07-08T12:48:18;5.03;;;4.53;;
30127;SDS011;16942;53.196;6.592;2023-07-08T12:50:44;5.93;;;5.15;;
30127;SDS011;16942;53.196;6.592;2023-07-08T12:53:10;6.72;;;5.18;;
30127;SDS011;16942;53.196;6.592;2023-07-08T12:55:41;8.90;;;4.88;;
30127;SDS011;16942;53.196;6.592;2023-07-08T12:58:09;5.97;;;4.63;;
30127;SDS011;16942;53.196;6.592;2023-07-08T13:00:38;5.22;;;4.72;;
30127;SDS011;16942;53.196;6.592;2023-07-08T13:03:12;5.80;;;4.82;;
30127;SDS011;16942;53.196;6.592;2023-07-08T13:05:39;4.85;;;4.45;;
30127;SDS011;16942;53.196;6.592;2023-07-08T13:08:07;4.80;;;4.30;;
30127;SDS011;16942;53.196;6.592;2023-07-08T13:10:34;6.85;;;4.85;;
30127;SDS011;16942;53.196;6.592;2023-07-08T13:13:02;11.95;;;4.50;;
30127;SDS011;16942;53.196;6.592;2023-07-08T13:15:32;8.55;;;5.00;;
30127;SDS011;16942;53.196;6.592;2023-07-08T13:17:58;5.78;;;4.88;;
30127;SDS011;16942;53.196;6.592;2023-07-08T13:20:25;7.10;;;5.22;;
30127;SDS011;16942;53.196;6.592;2023-07-08T13:22:53;5.60;;;5.00;;
30127;SDS011;16942;53.196;6.592;2023-07-08T13:25:19;6.90;;;5.35;;
30127;SDS011;16942;53.196;6.592;2023-07-08T13:27:56;6.07;;;5.45;;
30127;SDS011;16942;53.196;6.592;2023-07-08T13:30:24;5.22;;;4.53;;
30127;SDS011;16942;53.196;6.592;2023-07-08T13:32:57;5.85;;;5.25;;
30127;SDS011;16942;53.196;6.592;2023-07-08T13:35:27;5.30;;;4.80;;
30127;SDS011;16942;53.196;6.592;2023-07-08T13:37:55;6.63;;;5.72;;
30127;SDS011;16942;53.196;6.592;2023-07-08T13:40:21;7.28;;;6.57;;
30127;SDS011;16942;53.196;6.592;2023-07-08T13:42:48;6.82;;;6.22;;
30127;SDS011;16942;53.196;6.592;2023-07-08T13:45:15;10.82;;;9.00;;
30127;SDS011;16942;53.196;6.592;2023-07-08T13:47:43;13.38;;;12.07;;
30127;SDS011;16942;53.196;6.592;2023-07-08T13:50:19;23.40;;;15.95;;
30127;SDS011;16942;53.196;6.592;2023-07-08T13:52:53;15.68;;;14.07;;
30127;SDS011;16942;53.196;6.592;2023-07-08T13:55:19;15.55;;;14.00;;
30127;SDS011;16942;53.196;6.592;2023-07-08T13:57:46;18.42;;;15.90;;
30127;SDS011;16942;53.196;6.592;2023-07-08T14:00:21;16.17;;;14.57;;
30127;SDS011;16942;53.196;6.592;2023-07-08T14:02:47;16.23;;;14.63;;
30127;SDS011;16942;53.196;6.592;2023-07-08T14:05:13;15.63;;;13.98;;
30127;SDS011;16942;53.196;6.592;2023-07-08T14:07:44;12.40;;;11.20;;
30127;SDS011;16942;53.196;6.592;2023-07-08T14:10:11;11.90;;;10.75;;
30127;SDS011;16942;53.196;6.592;2023-07-08T14:12:37;12.23;;;11.00;;
30127;SDS011;16942;53.196;6.592;2023-07-08T14:15:03;11.07;;;9.98;;
30127;SDS011;16942;53.196;6.592;2023-07-08T14:17:29;10.32;;;9.25;;
30127;SDS011;16942;53.196;6.592;2023-07-08T14:19:55;9.45;;;8.07;;
30127;SDS011;16942;53.196;6.592;2023-07-08T14:24:47;9.18;;;8.20;;
30127;SDS011;16942;53.196;6.592;2023-07-08T14:27:13;9.70;;;7.63;;
30127;SDS011;16942;53.196;6.592;2023-07-08T14:29:41;8.45;;;7.25;;
30127;SDS011;16942;53.196;6.592;2023-07-08T14:32:11;11.40;;;7.25;;
30127;SDS011;16942;53.196;6.592;2023-07-08T14:34:38;7.32;;;6.63;;
30127;SDS011;16942;53.196;6.592;2023-07-08T14:37:08;7.82;;;7.03;;
30127;SDS011;16942;53.196;6.592;2023-07-08T14:39:38;8.18;;;6.55;;
30127;SDS011;16942;53.196;6.592;2023-07-08T14:42:04;8.55;;;6.25;;
30127;SDS011;16942;53.196;6.592;2023-07-08T14:44:34;7.05;;;6.38;;
30127;SDS011;16942;53.196;6.592;2023-07-08T14:47:01;7.97;;;6.35;;
30127;SDS011;16942;53.196;6.592;2023-07-08T14:49:27;6.20;;;5.57;;
30127;SDS011;16942;53.196;6.592;2023-07-08T14:51:54;6.35;;;5.75;;
30127;SDS011;16942;53.196;6.592;2023-07-08T14:54:20;8.70;;;5.90;;
30127;SDS011;16942;53.196;6.592;2023-07-08T14:56:46;6.70;;;5.70;;
30127;SDS011;16942;53.196;6.592;2023-07-08T14:59:14;9.23;;;6.38;;
30127;SDS011;16942;53.196;6.592;2023-07-08T15:01:41;8.25;;;6.18;;
30127;SDS011;16942;53.196;6.592;2023-07-08T15:04:12;6.30;;;5.70;;
30127;SDS011;16942;53.196;6.592;2023-07-08T15:06:38;6.88;;;6.18;;
30127;SDS011;16942;53.196;6.592;2023-07-08T15:09:04;7.05;;;6.20;;
30127;SDS011;16942;53.196;6.592;2023-07-08T15:11:30;7.13;;;6.43;;
30127;SDS011;16942;53.196;6.592;2023-07-08T15:13:57;6.93;;;6.22;;
30127;SDS011;16942;53.196;6.592;2023-07-08T15:16:23;9.70;;;6.38;;
30127;SDS011;16942;53.196;6.592;2023-07-08T15:18:49;7.88;;;7.18;;
30127;SDS011;16942;53.196;6.592;2023-07-08T15:21:15;8.38;;;6.50;;
30127;SDS011;16942;53.196;6.592;2023-07-08T15:23:41;8.18;;;6.40;;
30127;SDS011;16942;53.196;6.592;2023-07-08T15:26:11;8.73;;;7.00;;
30127;SDS011;16942;53.196;6.592;2023-07-08T15:28:39;8.43;;;7.05;;
30127;SDS011;16942;53.196;6.592;2023-07-08T15:31:08;9.68;;;7.28;;
30127;SDS011;16942;53.196;6.592;2023-07-08T15:33:35;7.50;;;6.57;;
30127;SDS011;16942;53.196;6.592;2023-07-08T15:36:01;8.57;;;5.97;;
30127;SDS011;16942;53.196;6.592;2023-07-08T15:38:27;7.18;;;6.35;;
30127;SDS011;16942;53.196;6.592;2023-07-08T15:40:53;9.80;;;6.65;;
30127;SDS011;16942;53.196;6.592;2023-07-08T15:43:19;9.00;;;6.25;;
30127;SDS011;16942;53.196;6.592;2023-07-08T15:45:46;7.53;;;6.72;;
30127;SDS011;16942;53.196;6.592;2023-07-08T15:48:15;7.75;;;7.00;;
30127;SDS011;16942;53.196;6.592;2023-07-08T15:50:42;7.03;;;6.32;;
30127;SDS011;16942;53.196;6.592;2023-07-08T15:53:08;8.07;;;6.75;;
30127;SDS011;16942;53.196;6.592;2023-07-08T15:55:35;7.38;;;6.53;;
30127;SDS011;16942;53.196;6.592;2023-07-08T15:58:05;9.95;;;8.18;;